Time,TemperatureF,DewpointF,PressureIn,WindDirection,WindDirectionDegrees,WindSpeedMPH,WindSpeedGustMPH,Humidity,HourlyPrecipIn,Conditions,Clouds,dailyrainin,SoftwareType,DateUTC
2013-08-03 00:01:00,74.7,66.6,30.00,WSW,255,11.0,11.0,76,0.00,,---,0.00,VWS V14.01,2013-08-03 04:01:00,
2013-08-03 00:02:00,74.8,66.4,30.00,WSW,257,7.6,11.0,75,0.00,,---,0.00,VWS V14.01,2013-08-03 04:02:00,
2013-08-03 00:03:00,74.8,66.4,30.00,WSW,246,6.3,9.6,75,0.00,,---,0.00,VWS V14.01,2013-08-03 04:03:00,
2013-08-03 00:04:00,75.0,66.6,30.00,WSW,253,5.8,8.3,75,0.00,,---,0.00,VWS V14.01,2013-08-03 04:04:00,
2013-08-03 00:10:00,75.2,66.0,30.00,SW,234,8.7,8.7,73,0.00,,---,0.00,VWS V14.01,2013-08-03 04:10:00,
2013-08-03 00:13:00,75.2,66.0,30.00,SW,236,8.3,8.3,73,0.00,,---,0.00,VWS V14.01,2013-08-03 04:13:00,
2013-08-03 00:18:00,75.2,66.0,30.00,WSW,248,5.8,5.8,73,0.00,,---,0.00,VWS V14.01,2013-08-03 04:18:00,
2013-08-03 00:23:00,75.2,66.3,30.00,WSW,257,6.3,11.0,74,0.00,,---,0.00,VWS V14.01,2013-08-03 04:23:00,
2013-08-03 00:28:00,75.2,66.3,30.00,WSW,254,5.4,7.6,74,0.00,,---,0.00,VWS V14.01,2013-08-03 04:28:00,
2013-08-03 00:33:00,75.2,66.3,30.00,West,260,7.6,11.0,74,0.00,,---,0.00,VWS V14.01,2013-08-03 04:33:00,
2013-08-03 00:38:00,75.2,66.7,30.00,South,178,3.6,3.6,75,0.00,,---,0.00,VWS V14.01,2013-08-03 04:38:00,
2013-08-03 00:43:00,74.7,67.0,30.00,West,261,7.6,7.6,77,0.00,,---,0.00,VWS V14.01,2013-08-03 04:43:00,
2013-08-03 00:48:00,74.7,67.0,30.00,West,276,5.4,8.1,77,0.00,,---,0.00,VWS V14.01,2013-08-03 04:48:00,
2013-08-03 00:53:00,74.8,67.2,30.00,SW,219,5.8,10.5,77,0.00,,---,0.00,VWS V14.01,2013-08-03 04:53:00,
2013-08-03 00:58:00,74.8,67.2,30.00,SSW,202,7.6,8.7,77,0.00,,---,0.00,VWS V14.01,2013-08-03 04:58:00,
2013-08-03 01:03:00,74.8,67.2,30.00,SW,233,5.8,6.3,77,0.00,,---,0.00,VWS V14.01,2013-08-03 05:03:00,
2013-08-03 01:08:00,74.8,67.2,30.00,SW,234,5.4,8.7,77,0.00,,---,0.00,VWS V14.01,2013-08-03 05:08:00,
2013-08-03 01:13:00,74.8,67.2,30.00,WSW,246,4.9,8.7,77,0.00,,---,0.00,VWS V14.01,2013-08-03 05:13:00,
2013-08-03 01:18:00,74.7,67.0,30.00,WSW,246,5.4,5.8,77,0.00,,---,0.00,VWS V14.01,2013-08-03 05:18:00,
2013-08-03 01:23:00,74.7,67.0,30.00,WSW,252,8.7,8.7,77,0.00,,---,0.00,VWS V14.01,2013-08-03 05:23:00,
2013-08-03 01:28:00,74.7,67.3,30.00,WSW,245,8.1,8.1,78,0.00,,---,0.00,VWS V14.01,2013-08-03 05:28:00,
2013-08-03 01:33:00,74.7,67.3,29.97,WSW,248,4.0,8.1,78,0.00,,---,0.00,VWS V14.01,2013-08-03 05:33:00,
2013-08-03 01:38:00,74.7,67.3,29.97,WSW,252,8.3,8.3,78,0.00,,---,0.00,VWS V14.01,2013-08-03 05:38:00,
2013-08-03 01:43:00,74.5,67.2,29.97,WSW,246,6.3,6.7,78,0.00,,---,0.00,VWS V14.01,2013-08-03 05:43:00,
2013-08-03 01:48:00,74.5,67.6,29.97,West,262,8.7,8.7,79,0.00,,---,0.00,VWS V14.01,2013-08-03 05:48:00,
2013-08-03 01:53:00,74.5,67.6,29.97,WSW,239,5.8,6.3,79,0.00,,---,0.00,VWS V14.01,2013-08-03 05:53:00,
2013-08-03 01:58:00,74.3,67.4,29.97,WSW,248,5.8,6.3,79,0.00,,---,0.00,VWS V14.01,2013-08-03 05:58:00,
2013-08-03 02:03:00,74.3,67.7,29.97,West,265,8.1,8.1,80,0.00,,---,0.00,VWS V14.01,2013-08-03 06:03:00,
2013-08-03 02:08:00,74.1,67.6,29.97,WSW,242,10.1,10.1,80,0.00,,---,0.00,VWS V14.01,2013-08-03 06:08:00,
2013-08-03 02:13:00,74.1,67.9,29.97,WSW,258,7.6,8.3,81,0.00,,---,0.00,VWS V14.01,2013-08-03 06:13:00,
2013-08-03 02:18:00,74.1,67.9,29.97,West,267,6.3,7.6,81,0.00,,---,0.00,VWS V14.01,2013-08-03 06:18:00,
2013-08-03 02:23:00,74.1,68.3,29.97,WSW,252,4.0,4.0,82,0.00,,---,0.00,VWS V14.01,2013-08-03 06:23:00,
2013-08-03 02:28:00,73.9,68.1,29.97,WSW,245,7.2,7.2,82,0.00,,---,0.00,VWS V14.01,2013-08-03 06:28:00,
2013-08-03 02:33:00,73.9,68.1,29.97,WSW,252,5.8,5.8,82,0.00,,---,0.00,VWS V14.01,2013-08-03 06:33:00,
2013-08-03 02:38:00,73.9,68.5,29.97,WSW,239,4.0,4.0,83,0.00,,---,0.00,VWS V14.01,2013-08-03 06:38:00,
2013-08-03 02:43:00,73.9,68.5,29.97,West,259,5.4,7.6,83,0.00,,---,0.00,VWS V14.01,2013-08-03 06:43:00,
2013-08-03 02:48:00,73.9,68.5,29.97,SW,229,5.4,8.1,83,0.00,,---,0.00,VWS V14.01,2013-08-03 06:48:00,
2013-08-03 02:53:00,73.9,68.8,29.97,WSW,248,6.3,6.3,84,0.00,,---,0.00,VWS V14.01,2013-08-03 06:53:00,
2013-08-03 02:58:00,73.9,68.8,29.97,WSW,242,6.7,7.6,84,0.00,,---,0.00,VWS V14.01,2013-08-03 06:58:00,
2013-08-03 03:03:00,73.9,69.2,29.97,WSW,249,5.8,5.8,85,0.00,,---,0.00,VWS V14.01,2013-08-03 07:03:00,
2013-08-03 03:08:00,73.9,69.2,29.97,WNW,283,7.6,7.6,85,0.00,,---,0.00,VWS V14.01,2013-08-03 07:08:00,
2013-08-03 03:13:00,73.9,69.5,29.97,WSW,243,6.3,8.3,86,0.00,,---,0.00,VWS V14.01,2013-08-03 07:13:00,
2013-08-03 03:18:00,73.9,69.5,29.97,WSW,251,8.3,8.3,86,0.00,,---,0.00,VWS V14.01,2013-08-03 07:18:00,
2013-08-03 03:23:00,73.9,69.5,29.97,SSW,212,3.1,5.8,86,0.00,,---,0.00,VWS V14.01,2013-08-03 07:23:00,
2013-08-03 03:28:00,73.8,69.3,29.97,SW,227,3.1,4.0,86,0.00,,---,0.00,VWS V14.01,2013-08-03 07:28:00,
2013-08-03 03:33:00,73.4,69.0,29.97,WSW,248,5.4,5.4,86,0.00,,---,0.00,VWS V14.01,2013-08-03 07:33:00,
2013-08-03 03:38:00,73.6,69.5,29.97,WSW,251,7.6,7.6,87,0.00,,---,0.00,VWS V14.01,2013-08-03 07:38:00,
2013-08-03 03:43:00,73.8,69.7,29.97,West,267,8.1,8.1,87,0.00,,---,0.00,VWS V14.01,2013-08-03 07:43:00,
2013-08-03 03:48:00,73.8,69.7,29.97,WSW,249,7.2,8.1,87,0.00,,---,0.00,VWS V14.01,2013-08-03 07:48:00,
2013-08-03 03:53:00,73.8,69.7,29.97,West,259,4.9,5.4,87,0.00,,---,0.00,VWS V14.01,2013-08-03 07:53:00,
2013-08-03 03:58:00,73.8,69.7,29.97,West,273,3.6,4.0,87,0.00,,---,0.00,VWS V14.01,2013-08-03 07:58:00,
2013-08-03 04:03:00,73.6,69.5,29.97,West,259,5.4,5.4,87,0.00,,---,0.00,VWS V14.01,2013-08-03 08:03:00,
2013-08-03 04:08:00,73.6,69.5,29.97,West,260,4.0,6.3,87,0.00,,---,0.00,VWS V14.01,2013-08-03 08:08:00,
2013-08-03 04:13:00,73.6,69.8,29.97,WNW,286,4.0,4.0,88,0.00,,---,0.00,VWS V14.01,2013-08-03 08:13:00,
2013-08-03 04:18:00,73.6,69.8,29.97,West,270,4.9,4.9,88,0.00,,---,0.00,VWS V14.01,2013-08-03 08:18:00,
2013-08-03 04:23:00,73.8,70.0,29.97,WSW,244,5.4,8.1,88,0.00,,---,0.00,VWS V14.01,2013-08-03 08:23:00,
2013-08-03 04:28:00,73.6,69.8,29.97,WNW,302,4.9,4.9,88,0.00,,---,0.00,VWS V14.01,2013-08-03 08:28:00,
2013-08-03 04:33:00,73.6,69.8,29.97,WSW,253,5.4,5.4,88,0.00,,---,0.00,VWS V14.01,2013-08-03 08:33:00,
2013-08-03 04:38:00,73.6,69.8,29.97,West,272,3.6,4.9,88,0.00,,---,0.00,VWS V14.01,2013-08-03 08:38:00,
2013-08-03 04:43:00,73.6,69.8,29.97,West,266,5.8,5.8,88,0.00,,---,0.00,VWS V14.01,2013-08-03 08:43:00,
2013-08-03 04:48:00,73.6,69.8,29.97,WSW,256,4.9,4.9,88,0.00,,---,0.00,VWS V14.01,2013-08-03 08:48:00,
2013-08-03 04:53:00,73.6,69.8,29.97,WSW,248,4.0,4.0,88,0.00,,---,0.00,VWS V14.01,2013-08-03 08:53:00,
2013-08-03 04:58:00,73.6,70.1,29.97,WNW,282,4.9,4.9,89,0.00,,---,0.00,VWS V14.01,2013-08-03 08:58:00,
2013-08-03 05:03:00,73.6,70.1,29.97,WSW,256,5.8,5.8,89,0.00,,---,0.00,VWS V14.01,2013-08-03 09:03:00,
2013-08-03 05:08:00,73.6,70.1,29.97,West,261,3.6,4.9,89,0.00,,---,0.00,VWS V14.01,2013-08-03 09:08:00,
2013-08-03 05:13:00,73.6,70.1,29.97,West,261,4.5,4.5,89,0.00,,---,0.00,VWS V14.01,2013-08-03 09:13:00,
2013-08-03 05:18:00,73.6,70.1,29.97,WSW,256,2.2,6.3,89,0.00,,---,0.00,VWS V14.01,2013-08-03 09:18:00,
2013-08-03 05:23:00,73.6,70.1,29.97,West,275,5.8,6.3,89,0.00,,---,0.00,VWS V14.01,2013-08-03 09:23:00,
2013-08-03 05:28:00,73.8,70.3,29.97,WNW,283,4.5,4.9,89,0.00,,---,0.00,VWS V14.01,2013-08-03 09:28:00,
2013-08-03 05:33:00,73.6,70.1,29.97,WNW,291,6.3,6.7,89,0.00,,---,0.00,VWS V14.01,2013-08-03 09:33:00,
2013-08-03 05:38:00,73.6,70.1,29.97,West,278,3.6,5.8,89,0.00,,---,0.00,VWS V14.01,2013-08-03 09:38:00,
2013-08-03 05:43:00,73.6,70.1,29.97,WSW,248,5.4,5.4,89,0.00,,---,0.00,VWS V14.01,2013-08-03 09:43:00,
2013-08-03 05:48:00,73.6,70.1,29.97,West,261,3.1,3.6,89,0.00,,---,0.00,VWS V14.01,2013-08-03 09:48:00,
2013-08-03 05:53:00,73.6,70.1,29.97,West,280,4.9,4.9,89,0.00,,---,0.00,VWS V14.01,2013-08-03 09:53:00,
2013-08-03 05:58:00,73.6,70.1,29.97,West,267,2.7,3.1,89,0.00,,---,0.00,VWS V14.01,2013-08-03 09:58:00,
2013-08-03 06:03:00,73.6,70.1,29.97,West,265,3.6,6.3,89,0.00,,---,0.00,VWS V14.01,2013-08-03 10:03:00,
2013-08-03 06:08:00,73.6,70.1,29.97,West,268,2.2,2.7,89,0.00,,---,0.00,VWS V14.01,2013-08-03 10:08:00,
2013-08-03 06:13:00,73.6,70.1,29.97,West,272,4.0,4.0,89,0.00,,---,0.00,VWS V14.01,2013-08-03 10:13:00,
2013-08-03 06:18:00,73.6,70.1,29.97,West,263,3.6,3.6,89,0.00,,---,0.00,VWS V14.01,2013-08-03 10:18:00,
2013-08-03 06:23:00,73.6,70.1,29.97,West,267,3.1,3.1,89,0.00,,---,0.00,VWS V14.01,2013-08-03 10:23:00,
2013-08-03 06:28:00,73.6,70.1,29.97,West,280,3.1,5.4,89,0.00,,---,0.00,VWS V14.01,2013-08-03 10:28:00,
2013-08-03 06:33:00,73.6,70.1,29.97,WNW,286,5.8,5.8,89,0.00,,---,0.00,VWS V14.01,2013-08-03 10:33:00,
2013-08-03 06:38:00,73.6,70.1,29.97,West,274,5.4,5.4,89,0.00,,---,0.00,VWS V14.01,2013-08-03 10:38:00,
2013-08-03 06:43:00,73.6,70.1,29.97,West,266,3.1,3.1,89,0.00,,---,0.00,VWS V14.01,2013-08-03 10:43:00,
2013-08-03 06:48:00,73.6,70.1,29.97,West,265,5.8,5.8,89,0.00,,---,0.00,VWS V14.01,2013-08-03 10:48:00,
2013-08-03 06:53:00,73.8,70.3,29.97,WNW,282,4.9,4.9,89,0.00,,---,0.00,VWS V14.01,2013-08-03 10:53:00,
2013-08-03 06:58:00,73.8,70.3,29.97,WNW,291,5.8,5.8,89,0.00,,---,0.00,VWS V14.01,2013-08-03 10:58:00,
2013-08-03 07:03:00,73.8,70.3,29.97,WNW,283,3.6,3.6,89,0.00,,---,0.00,VWS V14.01,2013-08-03 11:03:00,
2013-08-03 07:08:00,73.8,70.3,29.97,WNW,287,4.0,4.0,89,0.00,,---,0.00,VWS V14.01,2013-08-03 11:08:00,
2013-08-03 07:14:00,73.9,70.5,29.97,WNW,284,4.0,4.0,89,0.00,,---,0.00,VWS V14.01,2013-08-03 11:14:00,
2013-08-03 07:19:00,73.9,70.2,29.97,West,262,4.5,5.8,88,0.00,,---,0.00,VWS V14.01,2013-08-03 11:19:00,
2013-08-03 07:24:00,74.1,70.3,29.97,WNW,284,2.7,5.4,88,0.00,,---,0.00,VWS V14.01,2013-08-03 11:24:00,
2013-08-03 07:29:00,74.1,70.3,29.97,WSW,248,3.6,4.0,88,0.00,,---,0.00,VWS V14.01,2013-08-03 11:29:00,
2013-08-03 07:30:00,74.1,70.3,30.00,West,262,5.4,5.4,88,0.00,,---,0.00,VWS V14.01,2013-08-03 11:30:00,
2013-08-03 07:36:00,74.1,70.0,30.00,WSW,246,3.6,4.9,87,0.00,,---,0.00,VWS V14.01,2013-08-03 11:36:00,
2013-08-03 07:42:00,74.1,70.0,30.00,West,276,5.4,5.8,87,0.00,,---,0.00,VWS V14.01,2013-08-03 11:42:00,
2013-08-03 07:48:00,74.3,70.2,30.00,West,267,4.9,5.4,87,0.00,,---,0.00,VWS V14.01,2013-08-03 11:48:00,
2013-08-03 07:53:00,74.5,70.4,30.00,West,264,2.7,5.8,87,0.00,,---,0.00,VWS V14.01,2013-08-03 11:53:00,
2013-08-03 07:59:00,74.7,70.2,30.00,West,276,3.1,5.8,86,0.00,,---,0.00,VWS V14.01,2013-08-03 11:59:00,
2013-08-03 08:04:00,74.8,70.4,30.00,West,267,5.4,5.8,86,0.00,,---,0.00,VWS V14.01,2013-08-03 12:04:00,
2013-08-03 08:09:00,75.0,70.6,30.00,WSW,249,6.3,6.3,86,0.00,,---,0.00,VWS V14.01,2013-08-03 12:09:00,
2013-08-03 08:13:00,75.4,70.6,30.00,WNW,283,2.7,3.6,85,0.00,,---,0.00,VWS V14.01,2013-08-03 12:13:00,
2013-08-03 08:19:00,75.7,70.6,30.00,WNW,285,3.6,5.4,84,0.00,,---,0.00,VWS V14.01,2013-08-03 12:19:00,
2013-08-03 08:24:00,75.9,70.4,30.00,WNW,286,6.3,6.3,83,0.00,,---,0.00,VWS V14.01,2013-08-03 12:24:00,
2013-08-03 08:29:00,75.7,70.6,30.00,WSW,240,3.6,5.4,84,0.00,,---,0.00,VWS V14.01,2013-08-03 12:29:00,
2013-08-03 08:34:00,75.7,70.6,30.00,WSW,248,5.8,6.3,84,0.00,,---,0.00,VWS V14.01,2013-08-03 12:34:00,
2013-08-03 08:37:00,75.6,70.0,30.00,WSW,256,5.8,8.1,83,0.00,,---,0.00,VWS V14.01,2013-08-03 12:37:00,
2013-08-03 08:42:00,75.7,70.6,30.00,West,260,0.0,3.1,84,0.00,,---,0.00,VWS V14.01,2013-08-03 12:42:00,
2013-08-03 08:46:00,76.1,70.2,30.00,West,272,3.6,6.3,82,0.00,,---,0.00,VWS V14.01,2013-08-03 12:46:00,
2013-08-03 08:52:00,76.5,69.5,30.00,WSW,254,5.4,6.3,79,0.00,,---,0.00,VWS V14.01,2013-08-03 12:52:00,
2013-08-03 08:58:00,76.8,68.3,30.00,NNW,328,5.4,8.1,75,0.00,,---,0.00,VWS V14.01,2013-08-03 12:58:00,
2013-08-03 09:03:00,77.2,68.3,30.00,NW,306,5.4,5.8,74,0.00,,---,0.00,VWS V14.01,2013-08-03 13:03:00,
2013-08-03 09:09:00,77.5,67.4,30.00,West,271,7.6,7.6,71,0.00,,---,0.00,VWS V14.01,2013-08-03 13:09:00,
2013-08-03 09:14:00,78.4,67.4,30.00,WNW,290,8.3,10.5,69,0.00,,---,0.00,VWS V14.01,2013-08-03 13:14:00,
2013-08-03 09:19:00,78.4,66.6,30.00,WNW,302,7.2,10.1,67,0.00,,---,0.00,VWS V14.01,2013-08-03 13:19:00,
2013-08-03 09:24:00,78.3,66.0,30.00,West,273,8.7,10.5,66,0.00,,---,0.00,VWS V14.01,2013-08-03 13:24:00,
2013-08-03 09:29:00,78.6,66.3,30.00,NW,314,7.6,10.1,66,0.00,,---,0.00,VWS V14.01,2013-08-03 13:29:00,
2013-08-03 09:34:00,79.0,65.8,30.00,West,271,5.4,8.7,64,0.00,,---,0.00,VWS V14.01,2013-08-03 13:34:00,
2013-08-03 09:39:00,79.3,65.2,30.00,NW,321,8.3,8.3,62,0.00,,---,0.00,VWS V14.01,2013-08-03 13:39:00,
2013-08-03 09:44:00,79.5,64.0,29.97,West,269,8.1,8.1,59,0.00,,---,0.00,VWS V14.01,2013-08-03 13:44:00,
2013-08-03 09:49:00,79.5,63.5,29.97,NW,312,5.8,5.8,58,0.00,,---,0.00,VWS V14.01,2013-08-03 13:49:00,
2013-08-03 09:54:00,79.7,63.6,29.97,NW,316,8.1,8.1,58,0.00,,---,0.00,VWS V14.01,2013-08-03 13:54:00,
2013-08-03 09:59:00,79.3,62.3,29.97,NW,317,10.1,11.9,56,0.00,,---,0.00,VWS V14.01,2013-08-03 13:59:00,
2013-08-03 10:04:00,79.3,63.3,30.00,WNW,294,8.7,8.7,58,0.00,,---,0.00,VWS V14.01,2013-08-03 14:04:00,
2013-08-03 10:09:00,79.5,64.0,30.00,WNW,294,9.2,9.2,59,0.00,,---,0.00,VWS V14.01,2013-08-03 14:09:00,
2013-08-03 10:14:00,80.8,63.6,30.00,WNW,300,13.2,13.2,56,0.00,,---,0.00,VWS V14.01,2013-08-03 14:14:00,
2013-08-03 10:19:00,82.8,65.5,30.00,NW,310,8.3,8.7,56,0.00,,---,0.00,VWS V14.01,2013-08-03 14:19:00,
2013-08-03 10:24:00,81.5,62.7,30.00,NW,320,11.0,11.0,53,0.00,,---,0.00,VWS V14.01,2013-08-03 14:24:00,
2013-08-03 10:29:00,81.3,62.6,30.00,NW,314,8.7,10.1,53,0.00,,---,0.00,VWS V14.01,2013-08-03 14:29:00,
2013-08-03 10:34:00,80.8,61.5,30.00,NW,309,12.3,12.3,52,0.00,,---,0.00,VWS V14.01,2013-08-03 14:34:00,
2013-08-03 10:39:00,80.8,63.1,30.00,WNW,283,11.0,11.0,55,0.00,,---,0.00,VWS V14.01,2013-08-03 14:39:00,
2013-08-03 10:44:00,80.2,62.1,30.00,West,260,8.7,10.5,54,0.00,,---,0.00,VWS V14.01,2013-08-03 14:44:00,
2013-08-03 10:49:00,80.4,62.8,30.00,NW,325,12.8,12.8,55,0.00,,---,0.00,VWS V14.01,2013-08-03 14:49:00,
2013-08-03 10:54:00,81.5,64.3,30.00,WNW,300,5.4,8.7,56,0.00,,---,0.00,VWS V14.01,2013-08-03 14:54:00,
2013-08-03 10:59:00,81.3,64.1,30.00,NW,309,8.1,8.1,56,0.00,,---,0.00,VWS V14.01,2013-08-03 14:59:00,
2013-08-03 11:04:00,81.0,62.2,30.00,NNW,336,10.1,12.8,53,0.00,,---,0.00,VWS V14.01,2013-08-03 15:04:00,
2013-08-03 11:09:00,81.5,62.7,30.00,NNW,327,6.3,6.3,53,0.00,,---,0.00,VWS V14.01,2013-08-03 15:09:00,
2013-08-03 11:14:00,82.0,62.7,30.00,NNW,338,7.6,7.6,52,0.00,,---,0.00,VWS V14.01,2013-08-03 15:14:00,
2013-08-03 11:19:00,81.9,60.8,30.00,NW,315,7.6,8.7,49,0.00,,---,0.00,VWS V14.01,2013-08-03 15:19:00,
2013-08-03 11:24:00,82.0,61.0,30.00,NW,321,8.1,8.1,49,0.00,,---,0.00,VWS V14.01,2013-08-03 15:24:00,
2013-08-03 11:29:00,81.5,59.9,30.00,North,353,6.3,7.2,48,0.00,,---,0.00,VWS V14.01,2013-08-03 15:29:00,
2013-08-03 11:34:00,81.7,60.1,30.00,NNW,339,7.6,7.6,48,0.00,,---,0.00,VWS V14.01,2013-08-03 15:34:00,
2013-08-03 11:39:00,82.0,60.4,30.00,NW,324,6.3,10.5,48,0.00,,---,0.00,VWS V14.01,2013-08-03 15:39:00,
2013-08-03 11:44:00,82.8,61.1,30.00,NNE,13,4.5,10.1,48,0.00,,---,0.00,VWS V14.01,2013-08-03 15:44:00,
2013-08-03 11:49:00,81.5,59.9,30.00,WNW,294,2.7,3.6,48,0.00,,---,0.00,VWS V14.01,2013-08-03 15:49:00,
2013-08-03 11:54:00,80.6,59.7,30.00,NNW,344,5.4,12.3,49,0.00,,---,0.00,VWS V14.01,2013-08-03 15:54:00,
2013-08-03 11:59:00,80.8,61.0,30.00,WNW,298,6.3,6.3,51,0.00,,---,0.00,VWS V14.01,2013-08-03 15:59:00,
2013-08-03 12:04:00,80.8,62.6,30.00,North,0,5.4,5.4,54,0.00,,---,0.00,VWS V14.01,2013-08-03 16:04:00,
2013-08-03 12:09:00,81.1,62.4,30.00,NNW,327,4.9,5.4,53,0.00,,---,0.00,VWS V14.01,2013-08-03 16:09:00,
2013-08-03 12:14:00,81.0,62.2,30.00,North,349,5.4,5.4,53,0.00,,---,0.00,VWS V14.01,2013-08-03 16:14:00,
2013-08-03 12:19:00,80.6,61.9,30.00,WNW,301,4.0,6.3,53,0.00,,---,0.00,VWS V14.01,2013-08-03 16:19:00,
2013-08-03 12:24:00,80.4,62.3,30.00,NE,53,0.0,3.1,54,0.00,,---,0.00,VWS V14.01,2013-08-03 16:24:00,
2013-08-03 12:29:00,80.2,62.6,30.00,SE,137,4.0,4.0,55,0.00,,---,0.00,VWS V14.01,2013-08-03 16:29:00,
2013-08-03 12:34:00,79.9,61.8,30.00,NW,307,3.1,4.0,54,0.00,,---,0.00,VWS V14.01,2013-08-03 16:34:00,
2013-08-03 12:39:00,79.9,61.8,30.00,NW,313,7.6,8.3,54,0.00,,---,0.00,VWS V14.01,2013-08-03 16:39:00,
2013-08-03 12:44:00,80.1,61.9,30.00,WNW,291,2.7,7.2,54,0.00,,---,0.00,VWS V14.01,2013-08-03 16:44:00,
2013-08-03 12:49:00,80.8,61.5,30.00,NW,306,6.3,10.5,52,0.00,,---,0.00,VWS V14.01,2013-08-03 16:49:00,
2013-08-03 12:54:00,81.5,62.2,30.00,WNW,299,5.8,10.1,52,0.00,,---,0.00,VWS V14.01,2013-08-03 16:54:00,
2013-08-03 12:59:00,81.0,61.2,30.00,NW,314,5.4,5.8,51,0.00,,---,0.00,VWS V14.01,2013-08-03 16:59:00,
2013-08-03 13:04:00,80.4,61.2,30.00,NW,316,8.1,8.1,52,0.00,,---,0.00,VWS V14.01,2013-08-03 17:04:00,
2013-08-03 13:09:00,81.1,62.4,30.00,WNW,300,5.8,7.6,53,0.00,,---,0.00,VWS V14.01,2013-08-03 17:09:00,
2013-08-03 13:14:00,82.4,62.5,30.00,WNW,292,6.3,7.6,51,0.00,,---,0.00,VWS V14.01,2013-08-03 17:14:00,
2013-08-03 13:19:00,82.6,62.1,30.00,NW,307,8.7,10.5,50,0.00,,---,0.00,VWS V14.01,2013-08-03 17:19:00,
2013-08-03 13:24:00,82.0,61.0,30.00,NW,304,8.1,12.3,49,0.00,,---,0.00,VWS V14.01,2013-08-03 17:24:00,
2013-08-03 13:29:00,81.9,61.4,30.00,NW,316,8.3,8.3,50,0.00,,---,0.00,VWS V14.01,2013-08-03 17:29:00,
2013-08-03 13:34:00,81.5,60.5,30.00,NW,317,8.1,10.5,49,0.00,,---,0.00,VWS V14.01,2013-08-03 17:34:00,
2013-08-03 13:39:00,81.7,61.8,30.00,West,280,2.7,6.7,51,0.00,,---,0.00,VWS V14.01,2013-08-03 17:39:00,
2013-08-03 13:44:00,84.9,62.5,29.97,NW,305,3.1,3.1,47,0.00,,---,0.00,VWS V14.01,2013-08-03 17:44:00,
2013-08-03 13:49:00,84.7,61.1,29.97,NW,304,5.4,7.6,45,0.00,,---,0.00,VWS V14.01,2013-08-03 17:49:00,
2013-08-03 13:54:00,84.0,58.5,29.97,NW,309,14.1,14.1,42,0.00,,---,0.00,VWS V14.01,2013-08-03 17:54:00,
2013-08-03 13:59:00,84.4,58.8,29.97,NW,307,7.6,10.5,42,0.00,,---,0.00,VWS V14.01,2013-08-03 17:59:00,
2013-08-03 14:04:00,83.8,59.6,29.97,NNW,329,12.3,12.3,44,0.00,,---,0.00,VWS V14.01,2013-08-03 18:04:00,
2013-08-03 14:09:00,84.9,59.3,29.97,WNW,289,8.1,12.3,42,0.00,,---,0.00,VWS V14.01,2013-08-03 18:09:00,
2013-08-03 14:14:00,84.4,58.1,30.00,North,357,7.6,13.2,41,0.00,,---,0.00,VWS V14.01,2013-08-03 18:14:00,
2013-08-03 14:19:00,83.3,57.8,30.00,NNW,341,10.1,11.0,42,0.00,,---,0.00,VWS V14.01,2013-08-03 18:19:00,
2013-08-03 14:24:00,82.6,57.8,30.00,WNW,295,9.2,12.3,43,0.00,,---,0.00,VWS V14.01,2013-08-03 18:24:00,
2013-08-03 14:29:00,82.2,58.8,29.97,NW,323,12.8,12.8,45,0.00,,---,0.00,VWS V14.01,2013-08-03 18:29:00,
2013-08-03 14:34:00,81.0,57.0,29.97,WNW,303,8.1,15.4,44,0.00,,---,0.00,VWS V14.01,2013-08-03 18:34:00,
2013-08-03 14:39:00,80.4,57.8,29.97,NW,313,8.1,10.1,46,0.00,,---,0.00,VWS V14.01,2013-08-03 18:39:00,
2013-08-03 14:44:00,80.6,59.7,29.97,NNW,343,6.3,6.3,49,0.00,,---,0.00,VWS V14.01,2013-08-03 18:44:00,
2013-08-03 14:49:00,80.2,59.9,29.97,NW,307,5.8,10.1,50,0.00,,---,0.00,VWS V14.01,2013-08-03 18:49:00,
2013-08-03 14:54:00,80.1,59.2,29.97,WNW,288,5.4,8.1,49,0.00,,---,0.00,VWS V14.01,2013-08-03 18:54:00,
2013-08-03 15:00:00,80.1,59.8,29.97,NW,318,10.5,11.0,50,0.00,,---,0.00,VWS V14.01,2013-08-03 19:00:00,
2013-08-03 15:05:00,80.4,60.1,29.97,NW,306,7.6,8.1,50,0.00,,---,0.00,VWS V14.01,2013-08-03 19:05:00,
2013-08-03 15:10:00,80.6,60.8,29.97,NNW,338,8.7,11.0,51,0.00,,---,0.00,VWS V14.01,2013-08-03 19:10:00,
2013-08-03 15:15:00,80.1,60.9,29.97,North,0,6.3,10.5,52,0.00,,---,0.00,VWS V14.01,2013-08-03 19:15:00,
2013-08-03 15:20:00,80.1,61.4,29.97,NW,307,5.4,8.1,53,0.00,,---,0.00,VWS V14.01,2013-08-03 19:20:00,
2013-08-03 15:25:00,79.7,61.6,29.97,NNW,339,7.2,7.2,54,0.00,,---,0.00,VWS V14.01,2013-08-03 19:25:00,
2013-08-03 15:30:00,79.0,61.5,29.97,WNW,302,8.1,8.3,55,0.00,,---,0.00,VWS V14.01,2013-08-03 19:30:00,
2013-08-03 15:34:00,79.2,61.6,29.97,NNW,348,6.3,8.1,55,0.00,,---,0.00,VWS V14.01,2013-08-03 19:34:00,
2013-08-03 15:40:00,79.2,62.1,29.97,NNW,328,8.1,8.1,56,0.00,,---,0.00,VWS V14.01,2013-08-03 19:40:00,
2013-08-03 15:45:00,79.9,62.3,29.97,WNW,302,8.1,8.1,55,0.00,,---,0.00,VWS V14.01,2013-08-03 19:45:00,
2013-08-03 15:50:00,79.7,62.1,29.97,WNW,299,3.1,5.8,55,0.00,,---,0.00,VWS V14.01,2013-08-03 19:50:00,
2013-08-03 15:55:00,79.9,62.3,29.97,NW,310,7.6,7.6,55,0.00,,---,0.00,VWS V14.01,2013-08-03 19:55:00,
2013-08-03 16:00:00,79.3,61.8,29.97,NW,318,10.5,10.5,55,0.00,,---,0.00,VWS V14.01,2013-08-03 20:00:00,
2013-08-03 16:05:00,79.3,62.3,29.97,NNW,341,5.8,7.6,56,0.00,,---,0.00,VWS V14.01,2013-08-03 20:05:00,
2013-08-03 16:10:00,79.2,62.6,29.97,NW,315,8.3,10.1,57,0.00,,---,0.00,VWS V14.01,2013-08-03 20:10:00,
2013-08-03 16:15:00,79.9,62.8,29.97,NW,317,8.1,10.1,56,0.00,,---,0.00,VWS V14.01,2013-08-03 20:15:00,
2013-08-03 16:20:00,80.2,63.1,29.97,North,3,6.3,7.2,56,0.00,,---,0.00,VWS V14.01,2013-08-03 20:20:00,
2013-08-03 16:24:00,80.1,63.0,29.97,NW,322,5.4,10.5,56,0.00,,---,0.00,VWS V14.01,2013-08-03 20:24:00,
2013-08-03 16:30:00,80.1,63.0,29.97,NNW,343,7.2,8.3,56,0.00,,---,0.00,VWS V14.01,2013-08-03 20:30:00,
2013-08-03 16:34:00,79.5,62.5,29.97,NW,312,6.3,7.6,56,0.00,,---,0.00,VWS V14.01,2013-08-03 20:34:00,
2013-08-03 16:40:00,79.2,62.1,29.97,NW,321,6.3,8.3,56,0.00,,---,0.00,VWS V14.01,2013-08-03 20:40:00,
2013-08-03 16:45:00,79.2,62.6,29.94,NW,304,8.7,8.7,57,0.00,,---,0.00,VWS V14.01,2013-08-03 20:45:00,
2013-08-03 16:50:00,78.4,62.5,29.94,NNW,342,5.4,8.3,58,0.00,,---,0.00,VWS V14.01,2013-08-03 20:50:00,
2013-08-03 16:55:00,78.4,62.9,29.94,NW,325,5.8,7.2,59,0.00,,---,0.00,VWS V14.01,2013-08-03 20:55:00,
2013-08-03 17:00:00,78.1,63.1,29.97,West,271,6.3,8.1,60,0.00,,---,0.00,VWS V14.01,2013-08-03 21:00:00,
2013-08-03 17:05:00,77.9,63.4,29.97,WNW,293,8.3,8.3,61,0.00,,---,0.00,VWS V14.01,2013-08-03 21:05:00,
2013-08-03 17:10:00,77.9,63.4,29.97,West,274,5.8,8.1,61,0.00,,---,0.00,VWS V14.01,2013-08-03 21:10:00,
2013-08-03 17:15:00,77.5,63.0,29.97,West,275,8.1,8.1,61,0.00,,---,0.00,VWS V14.01,2013-08-03 21:15:00,
2013-08-03 17:20:00,77.4,63.3,29.97,NW,306,6.3,8.3,62,0.00,,---,0.00,VWS V14.01,2013-08-03 21:20:00,
2013-08-03 17:25:00,77.2,63.2,29.97,WNW,293,5.8,5.8,62,0.00,,---,0.00,VWS V14.01,2013-08-03 21:25:00,
2013-08-03 17:30:00,77.0,63.0,29.97,WNW,283,5.8,6.3,62,0.00,,---,0.00,VWS V14.01,2013-08-03 21:30:00,
2013-08-03 17:35:00,77.0,62.1,29.97,SW,217,5.4,5.4,60,0.00,,---,0.00,VWS V14.01,2013-08-03 21:35:00,
2013-08-03 17:40:00,77.0,61.1,29.97,WNW,291,6.3,6.3,58,0.00,,---,0.00,VWS V14.01,2013-08-03 21:40:00,
2013-08-03 17:45:00,77.0,61.1,29.97,NW,320,4.9,5.8,58,0.00,,---,0.00,VWS V14.01,2013-08-03 21:45:00,
2013-08-03 17:50:00,76.8,61.4,29.97,NW,324,5.8,6.7,59,0.00,,---,0.00,VWS V14.01,2013-08-03 21:50:00,
2013-08-03 17:55:00,76.5,61.1,29.97,NNW,332,6.3,6.3,59,0.00,,---,0.00,VWS V14.01,2013-08-03 21:55:00,
2013-08-03 18:00:00,76.3,61.9,29.97,NW,316,2.7,3.6,61,0.00,,---,0.00,VWS V14.01,2013-08-03 22:00:00,
2013-08-03 18:05:00,75.9,60.6,29.97,WNW,293,5.4,7.6,59,0.00,,---,0.00,VWS V14.01,2013-08-03 22:05:00,
2013-08-03 18:10:00,76.1,60.8,29.97,NNW,328,5.8,5.8,59,0.00,,---,0.00,VWS V14.01,2013-08-03 22:10:00,
2013-08-03 18:15:00,75.9,60.6,29.97,NNW,331,6.3,6.3,59,0.00,,---,0.00,VWS V14.01,2013-08-03 22:15:00,
2013-08-03 18:20:00,75.7,60.4,29.97,NW,312,3.1,3.1,59,0.00,,---,0.00,VWS V14.01,2013-08-03 22:20:00,
2013-08-03 18:25:00,75.7,60.4,29.97,NW,315,3.1,3.1,59,0.00,,---,0.00,VWS V14.01,2013-08-03 22:25:00,
2013-08-03 18:30:00,75.6,60.2,29.97,NW,316,4.5,4.5,59,0.00,,---,0.00,VWS V14.01,2013-08-03 22:30:00,
2013-08-03 18:35:00,75.6,60.7,29.97,NW,315,5.4,6.3,60,0.00,,---,0.00,VWS V14.01,2013-08-03 22:35:00,
2013-08-03 18:40:00,75.6,60.2,29.97,NW,308,4.0,5.4,59,0.00,,---,0.00,VWS V14.01,2013-08-03 22:40:00,
2013-08-03 18:45:00,75.6,60.2,29.97,WNW,303,3.1,4.0,59,0.00,,---,0.00,VWS V14.01,2013-08-03 22:45:00,
2013-08-03 18:50:00,75.4,60.1,29.97,NNW,334,3.1,3.1,59,0.00,,---,0.00,VWS V14.01,2013-08-03 22:50:00,
2013-08-03 18:55:00,75.2,59.9,29.97,NW,326,5.4,5.4,59,0.00,,---,0.00,VWS V14.01,2013-08-03 22:55:00,
2013-08-03 18:56:00,75.2,59.9,29.97,NW,315,4.0,5.4,59,0.00,,---,0.00,VWS V14.01,2013-08-03 22:56:00,
2013-08-03 19:01:00,75.2,60.4,29.97,NW,321,3.6,4.9,60,0.00,,---,0.00,VWS V14.01,2013-08-03 23:01:00,
2013-08-03 19:07:00,75.4,60.5,29.97,NW,308,2.7,4.9,60,0.00,,---,0.00,VWS V14.01,2013-08-03 23:07:00,
2013-08-03 19:12:00,75.4,61.0,29.97,NNW,341,4.9,4.9,61,0.00,,---,0.00,VWS V14.01,2013-08-03 23:12:00,
2013-08-03 19:18:00,75.4,61.0,29.97,NW,319,0.0,4.0,61,0.00,,---,0.00,VWS V14.01,2013-08-03 23:18:00,
2013-08-03 19:23:00,75.2,61.3,29.97,NW,323,6.3,6.3,62,0.00,,---,0.00,VWS V14.01,2013-08-03 23:23:00,
2013-08-03 19:29:00,75.0,61.6,29.97,NW,308,4.0,5.4,63,0.00,,---,0.00,VWS V14.01,2013-08-03 23:29:00,
2013-08-03 19:34:00,74.8,61.9,29.97,NNW,327,4.0,8.3,64,0.00,,---,0.00,VWS V14.01,2013-08-03 23:34:00,
2013-08-03 19:40:00,74.7,61.7,29.97,NW,326,3.1,4.9,64,0.00,,---,0.00,VWS V14.01,2013-08-03 23:40:00,
2013-08-03 19:45:00,74.5,61.5,29.97,NW,319,2.7,4.9,64,0.00,,---,0.00,VWS V14.01,2013-08-03 23:45:00,
2013-08-03 19:50:00,74.3,61.8,29.97,NW,321,3.6,6.3,65,0.00,,---,0.00,VWS V14.01,2013-08-03 23:50:00,
2013-08-03 19:55:00,74.3,61.8,29.97,WNW,284,2.2,4.0,65,0.00,,---,0.00,VWS V14.01,2013-08-03 23:55:00,
2013-08-03 20:00:00,74.3,61.8,29.97,NNW,346,3.6,3.6,65,0.00,,---,0.00,VWS V14.01,2013-08-04 00:00:00,
2013-08-03 20:05:00,74.3,61.8,29.97,North,349,0.0,0.0,65,0.00,,---,0.00,VWS V14.01,2013-08-04 00:05:00,
2013-08-03 20:10:00,74.3,61.8,29.97,North,353,3.1,3.1,65,0.00,,---,0.00,VWS V14.01,2013-08-04 00:10:00,
2013-08-03 20:15:00,74.3,61.8,29.97,NNW,345,2.2,4.0,65,0.00,,---,0.00,VWS V14.01,2013-08-04 00:15:00,
2013-08-03 20:20:00,74.1,61.2,29.97,NNW,329,4.9,5.4,64,0.00,,---,0.00,VWS V14.01,2013-08-04 00:20:00,
2013-08-03 20:25:00,73.9,61.0,29.97,North,357,3.6,3.6,64,0.00,,---,0.00,VWS V14.01,2013-08-04 00:25:00,
2013-08-03 20:30:00,73.9,61.0,29.97,NW,315,3.1,3.6,64,0.00,,---,0.00,VWS V14.01,2013-08-04 00:30:00,
2013-08-03 20:35:00,73.8,60.8,29.97,NNW,334,3.1,3.1,64,0.00,,---,0.00,VWS V14.01,2013-08-04 00:35:00,
2013-08-03 20:41:00,73.8,60.8,29.97,NNW,332,2.7,4.0,64,0.00,,---,0.00,VWS V14.01,2013-08-04 00:41:00,
2013-08-03 20:47:00,73.8,61.3,29.97,NW,320,3.6,4.0,65,0.00,,---,0.00,VWS V14.01,2013-08-04 00:47:00,
2013-08-03 20:53:00,73.6,61.1,29.97,NW,311,3.6,3.6,65,0.00,,---,0.00,VWS V14.01,2013-08-04 00:53:00,
2013-08-03 20:58:00,73.4,61.4,29.97,North,0,4.0,5.4,66,0.00,,---,0.00,VWS V14.01,2013-08-04 00:58:00,
2013-08-03 21:04:00,73.4,61.4,29.97,NW,319,2.7,4.0,66,0.00,,---,0.00,VWS V14.01,2013-08-04 01:04:00,
2013-08-03 21:10:00,73.4,61.8,29.97,NNW,334,4.0,5.4,67,0.00,,---,0.00,VWS V14.01,2013-08-04 01:10:00,
2013-08-03 21:15:00,73.0,62.3,29.97,NNW,336,3.6,4.0,69,0.00,,---,0.00,VWS V14.01,2013-08-04 01:15:00,
2013-08-03 21:20:00,73.0,62.3,29.97,North,353,3.1,3.1,69,0.00,,---,0.00,VWS V14.01,2013-08-04 01:20:00,
2013-08-03 21:25:00,72.9,62.5,29.97,NW,322,2.7,3.6,70,0.00,,---,0.00,VWS V14.01,2013-08-04 01:25:00,
2013-08-03 21:30:00,72.7,62.3,29.97,West,266,3.6,4.5,70,0.00,,---,0.00,VWS V14.01,2013-08-04 01:30:00,
2013-08-03 21:35:00,72.7,62.3,29.97,West,266,0.0,0.0,70,0.00,,---,0.00,VWS V14.01,2013-08-04 01:35:00,
2013-08-03 21:40:00,72.9,62.9,29.97,NNW,346,0.0,0.0,71,0.00,,---,0.00,VWS V14.01,2013-08-04 01:40:00,
2013-08-03 21:45:00,72.7,62.7,29.97,NNW,339,0.0,2.7,71,0.00,,---,0.00,VWS V14.01,2013-08-04 01:45:00,
2013-08-03 21:50:00,72.7,62.7,29.97,NNW,331,0.0,0.0,71,0.00,,---,0.00,VWS V14.01,2013-08-04 01:50:00,
2013-08-03 21:55:00,72.7,62.7,29.97,West,278,2.7,4.0,71,0.00,,---,0.00,VWS V14.01,2013-08-04 01:55:00,
2013-08-03 22:00:00,72.7,62.7,29.97,West,278,0.0,0.0,71,0.00,,---,0.00,VWS V14.01,2013-08-04 02:00:00,
2013-08-03 22:05:00,72.7,62.7,29.97,West,278,0.0,0.0,71,0.00,,---,0.00,VWS V14.01,2013-08-04 02:05:00,
2013-08-03 22:10:00,72.5,63.0,29.97,West,278,0.0,0.0,72,0.00,,---,0.00,VWS V14.01,2013-08-04 02:10:00,
2013-08-03 22:15:00,72.7,63.1,29.97,West,278,0.0,0.0,72,0.00,,---,0.00,VWS V14.01,2013-08-04 02:15:00,
2013-08-03 22:20:00,72.7,63.1,29.97,West,278,2.7,2.7,72,0.00,,---,0.00,VWS V14.01,2013-08-04 02:20:00,
2013-08-03 22:25:00,72.7,63.1,29.97,West,278,0.0,3.1,72,0.00,,---,0.00,VWS V14.01,2013-08-04 02:25:00,
2013-08-03 22:30:00,72.7,63.5,29.97,West,278,0.0,0.0,73,0.00,,---,0.00,VWS V14.01,2013-08-04 02:30:00,
2013-08-03 22:35:00,72.7,63.9,29.97,West,278,0.0,0.0,74,0.00,,---,0.00,VWS V14.01,2013-08-04 02:35:00,
2013-08-03 22:40:00,72.5,64.1,29.97,West,278,0.0,0.0,75,0.00,,---,0.00,VWS V14.01,2013-08-04 02:40:00,
2013-08-03 22:45:00,72.3,64.3,29.97,West,278,3.1,3.1,76,0.00,,---,0.00,VWS V14.01,2013-08-04 02:45:00,
2013-08-03 22:50:00,72.3,64.0,29.97,WSW,243,4.9,4.9,75,0.00,,---,0.00,VWS V14.01,2013-08-04 02:50:00,
2013-08-03 22:56:00,72.3,64.0,29.97,WSW,243,0.0,2.2,75,0.00,,---,0.00,VWS V14.01,2013-08-04 02:56:00,
2013-08-03 23:01:00,72.1,63.4,29.97,WSW,247,3.1,5.4,74,0.00,,---,0.00,VWS V14.01,2013-08-04 03:01:00,
2013-08-03 23:06:00,72.0,63.2,29.97,West,272,4.0,5.8,74,0.00,,---,0.00,VWS V14.01,2013-08-04 03:06:00,
2013-08-03 23:10:00,71.8,63.1,29.97,SW,234,4.9,4.9,74,0.00,,---,0.00,VWS V14.01,2013-08-04 03:10:00,
2013-08-03 23:16:00,71.8,63.1,29.97,WSW,254,3.1,4.5,74,0.00,,---,0.00,VWS V14.01,2013-08-04 03:16:00,
2013-08-03 23:21:00,71.8,62.7,29.97,SW,233,4.0,4.0,73,0.00,,---,0.00,VWS V14.01,2013-08-04 03:21:00,
2013-08-03 23:26:00,71.8,62.7,29.97,WSW,249,2.2,4.9,73,0.00,,---,0.00,VWS V14.01,2013-08-04 03:26:00,
2013-08-03 23:30:00,71.8,62.7,29.94,WSW,243,3.1,5.4,73,0.00,,---,0.00,VWS V14.01,2013-08-04 03:30:00,
2013-08-03 23:36:00,71.8,62.3,29.94,WSW,245,3.6,4.9,72,0.00,,---,0.00,VWS V14.01,2013-08-04 03:36:00,
2013-08-03 23:41:00,71.8,62.7,29.94,WSW,257,5.4,6.3,73,0.00,,---,0.00,VWS V14.01,2013-08-04 03:41:00,
2013-08-03 23:46:00,71.6,62.9,29.94,WSW,238,2.2,5.8,74,0.00,,---,0.00,VWS V14.01,2013-08-04 03:46:00,
2013-08-03 23:51:00,71.6,63.3,29.94,WSW,238,2.7,5.4,75,0.00,,---,0.00,VWS V14.01,2013-08-04 03:51:00,
2013-08-03 23:56:00,71.6,63.3,29.94,WSW,254,3.1,6.3,75,0.00,,---,0.00,VWS V14.01,2013-08-04 03:56:00,